![]() |
EMODnet Physics ERDDAP
Easier access to scientific data |
log in|
Brought to you by EMODnet Physics |
| Dataset Title: | NDBC - Collection of dew point temperature (DEWT) TimeSeries - IN SITU MultiPointTimeSeriesObservation
|
| Institution: | NDBC (Dataset ID: TS_DEWT_NDBC) |
| Information: | Summary
| License
| FGDC
| ISO 19115
| Metadata
| Background
| Subset
| Data Access Form
| Make a graph
|
| Name | Last modified | Size | Description | |
|---|---|---|---|---|
| Parent Directory | - | - | ||
| 45027_TS_DEWT_042016.nc | 26-Dec-2024 21:16 | 421571 | ||
| 45027_TS_DEWT_052013.nc | 26-Dec-2024 21:11 | 427002 | ||
| 45027_TS_DEWT_052015.nc | 26-Dec-2024 21:14 | 429600 | ||
| 45027_TS_DEWT_052016.nc | 26-Dec-2024 21:17 | 429600 | ||
| 45027_TS_DEWT_052017.nc | 26-Dec-2024 21:19 | 429621 | ||
| 45027_TS_DEWT_052018.nc | 26-Dec-2024 21:21 | 429608 | ||
| 45027_TS_DEWT_052024.nc | 04-Jan-2025 05:55 | 429609 | ||
| 45027_TS_DEWT_052025.nc | 01-Jun-2025 04:47 | 429614 | ||
| 45027_TS_DEWT_062011.nc | 26-Dec-2024 21:07 | 429608 | ||
| 45027_TS_DEWT_062013.nc | 26-Dec-2024 21:11 | 429606 | ||
| 45027_TS_DEWT_062014.nc | 26-Dec-2024 21:13 | 429617 | ||
| 45027_TS_DEWT_062015.nc | 26-Dec-2024 21:14 | 429607 | ||
| 45027_TS_DEWT_062016.nc | 26-Dec-2024 21:17 | 452016 | ||
| 45027_TS_DEWT_062017.nc | 26-Dec-2024 21:19 | 441071 | ||
| 45027_TS_DEWT_062018.nc | 26-Dec-2024 21:22 | 425365 | ||
| 45027_TS_DEWT_062021.nc | 26-Dec-2024 21:27 | 429608 | ||
| 45027_TS_DEWT_062022.nc | 26-Dec-2024 21:30 | 449671 | ||
| 45027_TS_DEWT_062023.nc | 26-Dec-2024 21:32 | 451015 | ||
| 45027_TS_DEWT_062025.nc | 01-Jul-2025 04:47 | 450256 | ||
| 45027_TS_DEWT_072011.nc | 26-Dec-2024 21:07 | 450373 | ||
| 45027_TS_DEWT_072012.nc | 26-Dec-2024 21:09 | 449966 | ||
| 45027_TS_DEWT_072013.nc | 26-Dec-2024 21:11 | 451153 | ||
| 45027_TS_DEWT_072014.nc | 26-Dec-2024 21:13 | 449705 | ||
| 45027_TS_DEWT_072015.nc | 26-Dec-2024 21:15 | 450335 | ||
| 45027_TS_DEWT_072016.nc | 26-Dec-2024 21:18 | 449586 | ||
| 45027_TS_DEWT_072017.nc | 26-Dec-2024 21:20 | 429827 | ||
| 45027_TS_DEWT_072018.nc | 26-Dec-2024 21:22 | 429834 | ||
| 45027_TS_DEWT_072019.nc | 26-Dec-2024 21:24 | 429834 | ||
| 45027_TS_DEWT_072020.nc | 26-Dec-2024 21:25 | 449901 | ||
| 45027_TS_DEWT_072021.nc | 26-Dec-2024 21:28 | 424795 | ||
| 45027_TS_DEWT_072022.nc | 26-Dec-2024 21:30 | 429829 | ||
| 45027_TS_DEWT_072023.nc | 26-Dec-2024 21:32 | 429832 | ||
| 45027_TS_DEWT_072025.nc | 01-Aug-2025 05:00 | 429830 | ||
| 45027_TS_DEWT_082011.nc | 26-Dec-2024 21:08 | 429831 | ||
| 45027_TS_DEWT_082012.nc | 26-Dec-2024 21:09 | 429815 | ||
| 45027_TS_DEWT_082013.nc | 26-Dec-2024 21:12 | 429835 | ||
| 45027_TS_DEWT_082014.nc | 26-Dec-2024 21:13 | 429837 | ||
| 45027_TS_DEWT_082015.nc | 26-Dec-2024 21:15 | 429267 | ||
| 45027_TS_DEWT_082016.nc | 26-Dec-2024 21:18 | 429271 | ||
| 45027_TS_DEWT_082017.nc | 26-Dec-2024 21:20 | 429276 | ||
| 45027_TS_DEWT_082018.nc | 26-Dec-2024 21:22 | 429247 | ||
| 45027_TS_DEWT_082019.nc | 26-Dec-2024 21:24 | 429283 | ||
| 45027_TS_DEWT_082020.nc | 26-Dec-2024 21:26 | 429290 | ||
| 45027_TS_DEWT_082021.nc | 26-Dec-2024 21:28 | 429275 | ||
| 45027_TS_DEWT_082022.nc | 26-Dec-2024 21:31 | 429285 | ||
| 45027_TS_DEWT_082023.nc | 26-Dec-2024 21:32 | 429269 | ||
| 45027_TS_DEWT_082025.nc | 01-Sep-2025 04:51 | 429285 | ||
| 45027_TS_DEWT_092011.nc | 26-Dec-2024 21:08 | 429260 | ||
| 45027_TS_DEWT_092012.nc | 26-Dec-2024 21:10 | 429291 | ||
| 45027_TS_DEWT_092013.nc | 26-Dec-2024 21:12 | 450259 | ||
| 45027_TS_DEWT_092014.nc | 26-Dec-2024 21:14 | 438385 | ||
| 45027_TS_DEWT_092015.nc | 26-Dec-2024 21:15 | 429284 | ||
| 45027_TS_DEWT_092016.nc | 26-Dec-2024 21:18 | 449754 | ||
| 45027_TS_DEWT_092017.nc | 26-Dec-2024 21:21 | 448875 | ||
| 45027_TS_DEWT_092018.nc | 26-Dec-2024 21:23 | 448840 | ||
| 45027_TS_DEWT_092019.nc | 26-Dec-2024 21:25 | 448895 | ||
| 45027_TS_DEWT_092020.nc | 26-Dec-2024 21:26 | 449557 | ||
| 45027_TS_DEWT_092021.nc | 26-Dec-2024 21:29 | 449785 | ||
| 45027_TS_DEWT_092022.nc | 26-Dec-2024 21:31 | 449632 | ||
| 45027_TS_DEWT_092023.nc | 26-Dec-2024 21:33 | 448788 | ||
| 45027_TS_DEWT_092025.nc | 01-Oct-2025 04:23 | 435872 | ||
| 45027_TS_DEWT_102011.nc | 26-Dec-2024 21:08 | 449737 | ||
| 45027_TS_DEWT_102012.nc | 26-Dec-2024 21:10 | 448325 | ||
| 45027_TS_DEWT_102013.nc | 26-Dec-2024 21:12 | 436275 | ||
| 45027_TS_DEWT_102015.nc | 26-Dec-2024 21:16 | 426424 | ||
| 45027_TS_DEWT_102016.nc | 26-Dec-2024 21:19 | 429489 | ||
| 45027_TS_DEWT_102017.nc | 26-Dec-2024 21:21 | 429488 | ||
| 45027_TS_DEWT_102018.nc | 26-Dec-2024 21:23 | 449158 | ||
| 45027_TS_DEWT_102019.nc | 26-Dec-2024 21:25 | 429422 | ||
| 45027_TS_DEWT_102020.nc | 26-Dec-2024 21:27 | 429491 | ||
| 45027_TS_DEWT_102021.nc | 26-Dec-2024 21:29 | 429489 | ||
| 45027_TS_DEWT_102022.nc | 26-Dec-2024 21:31 | 429346 | ||
| 45027_TS_DEWT_102023.nc | 26-Dec-2024 21:33 | 429489 | ||
| 45027_TS_DEWT_102024.nc | 12-Jan-2025 20:40 | 429491 | ||
| 45027_TS_DEWT_102025.nc | 15-Nov-2025 10:17 | 429469 | ||
| 45027_TS_DEWT_112011.nc | 26-Dec-2024 21:09 | 429535 | ||
| 45027_TS_DEWT_112012.nc | 26-Dec-2024 21:10 | 429604 | ||
| 45027_TS_DEWT_112015.nc | 26-Dec-2024 21:16 | 429573 | ||
| 45027_TS_DEWT_112017.nc | 26-Dec-2024 21:21 | 429523 | ||
| 45027_TS_DEWT_112018.nc | 26-Dec-2024 21:24 | 429590 | ||
| 45027_TS_DEWT_112019.nc | 26-Dec-2024 21:25 | 429608 | ||
| 45027_TS_DEWT_112020.nc | 26-Dec-2024 21:27 | 429614 | ||
| 45027_TS_DEWT_112023.nc | 26-Dec-2024 21:34 | 429610 | ||
| 45027_TS_DEWT_112024.nc | 20-Jan-2025 06:15 | 429609 | ||